You are listening to:
LTBA Gnd/Twr/App - Istanbul, Turkey

LTBA 060750Z 07015KT 9999 FEW027 28/17 Q1011 NOSIG RMK RWY23 06014KT

If stream doesn't start automatically press the play button
If stream stops then reload player then press play